Platzwetter / Webcam

  • Aktuelles Bild
  • Verlauf
  • Verlauf
  • Verlauf
  • Verlauf
  • Verlauf
  • Verlauf
  • Verlauf
  • Verlauf
  • Verlauf
  • Verlauf
  • Verlauf
  • Verlauf
  • Verlauf
  • Verlauf
  • Verlauf
  • Verlauf
  • Verlauf

Flugwetter Linz

[Quelle: ADDS]
METAR
LOWL 281620Z 33003KT 300V010 9999 FEW050 31/18 Q1015 NOSIG =
TAF
LOWL 281115Z 2812/2912 28006KT 9999 FEW060 TX30/2814Z TN17/2903Z TEMPO 2818/2906 VRB02KT CAVOK BECMG 2906/2908 29008KT 9999 BKN060 TEMPO 2908/2912 28015KT SHRA SCT030CB BKN050 =

Flugwetter Salzburg

[Quelle: ADDS]
METAR
LOWS 281620Z 34005KT 9999 FEW060 29/18 Q1017 NOSIG =
TAF
LOWS 281115Z 2812/2912 32008KT 9999 SCT060 SCT300 TX30/2813Z TN16/2903Z PROB30 TEMPO 2814/2818 30015G25KT TSRA FEW060CB BKN080 BECMG 2818/2820 15005KT CAVOK BECMG 2902/2904 29005KT 9999 SCT060 BKN120 TEMPO 2904/2912 33012KT 6000 SHRA FEW040TCU BKN060 PROB30 TEMPO 2906/2909 33015G25KT TSRA SCT040CB BKN060 =

Fliegen lernen

Die Fliegerschule der WMW...

Termine & Events

Alle Termine anzeigen...

Aktuelles & News

Ju 52 Rundflüge

Ju52 Rundflüge
Termine für 2017 in Kürze...

+++ Aktuelle Spritpreise (11.05.2016): | Jet A-1 € 1,292 | Super Plus 98 ETBE € 1,370 | Avgas 100LL € 1,944 | +++